Terminal Aerodrome Forecast
Issued by NWS

Home | Current Version | Previous Version | Text Only | Print | Product List | Glossary On
Versions: 1 2 3 4 5 6 7 8 9 10 11 12 13 14
000
FTAK31 PAJN 021100
TAFAYA
TAF
PAYA 021125Z 0212/0312 00000KT 6SM BR SCT004
      TEMPO 0212/0214 1/4SM FG VV002
     FM021400 12003KT 5SM BR FEW005 SCT015 BKN100
     FM021800 14007KT P6SM BKN100
     FM030300 10003KT P6SM SCT025 OVC050
     FM030900 10003KT P6SM VCFG SCT015 OVC035
      AMD LTD TO CLD VIS AND WIND 0301/0310=

USA.gov is the U.S. government's official web portal to all federal, state and local government web resources and services.